Time;durP1;ratioP1;P1;durP2;ratioP2;P2;SDS_P1;SDS_P2;PMS_P1;PMS_P2;Temp;Humidity;BMP_temperature;BMP_pressure;BME280_temperature;BME280_humidity;BME280_pressure;Samples;Min_cycle;Max_cycle;Signal;HPM_P1;HPM_P2
2022/01/23 00:00:19;;;;;;;27.43;17.00;;;;;;;2.91;72.48;100877.50;5065389;28;20238;-68
2022/01/23 00:02:49;;;;;;;23.87;16.93;;;;;;;2.00;73.13;100863.63;5068879;28;20227;-67
2022/01/23 00:05:20;;;;;;;24.43;16.77;;;;;;;4.45;65.93;100774.25;5064282;28;20242;-67
2022/01/23 00:07:47;;;;;;;29.83;17.50;;;;;;;2.53;72.73;100871.91;5053195;28;20245;-68
2022/01/23 00:10:14;;;;;;;26.73;17.33;;;;;;;3.85;67.63;100810.03;5065960;28;20231;-68
2022/01/23 00:12:47;;;;;;;23.70;16.80;;;;;;;1.48;75.66;100872.69;5072550;28;20730;-67
2022/01/23 00:18:00;;;;;;;24.83;16.37;;;;;;;3.63;68.90;100792.97;5071899;28;20228;-67
2022/01/23 00:20:27;;;;;;;24.27;17.03;;;;;;;4.23;66.00;100746.72;5069297;28;20218;-68
2022/01/23 00:22:58;;;;;;;26.80;17.53;;;;;;;1.99;71.83;100804.03;5068940;28;20983;-67
2022/01/23 00:30:59;;;;;;;25.83;17.60;;;;;;;1.82;74.10;100839.22;5069889;28;20229;-67
2022/01/23 00:33:26;;;;;;;29.73;18.03;;;;;;;2.70;72.94;100853.31;5065935;28;20219;-67
2022/01/23 00:35:54;;;;;;;25.33;18.00;;;;;;;2.11;74.86;100859.44;5068048;28;20236;-68
2022/01/23 00:38:22;;;;;;;25.37;17.20;;;;;;;1.63;75.39;100855.22;5068532;28;20249;-68
2022/01/23 00:40:50;;;;;;;29.23;18.93;;;;;;;1.43;76.30;100858.97;5068108;28;20236;-68
2022/01/23 00:43:26;;;;;;;28.23;17.90;;;;;;;1.54;75.21;100851.34;5060312;28;20226;-68
2022/01/23 00:46:09;;;;;;;27.63;19.00;;;;;;;1.67;75.68;100867.28;5070444;28;20231;-68
2022/01/23 00:48:39;;;;;;;26.17;17.60;;;;;;;4.07;68.38;100748.72;5063781;28;20219;-68
2022/01/23 00:51:06;;;;;;;28.00;18.03;;;;;;;3.71;69.58;100780.13;5061315;28;20610;-68
2022/01/23 00:53:33;;;;;;;31.37;19.60;;;;;;;2.34;74.32;100864.28;5069024;28;21014;-68
2022/01/23 00:56:00;;;;;;;28.87;18.57;;;;;;;4.61;65.23;100708.81;5065507;28;20229;-68
2022/01/23 00:58:26;;;;;;;28.50;18.93;;;;;;;2.98;70.48;100823.47;5071680;28;20901;-67
2022/01/23 01:00:53;;;;;;;28.87;19.37;;;;;;;3.20;71.75;100837.91;5059425;28;20231;-68
2022/01/23 01:03:21;;;;;;;27.43;19.67;;;;;;;4.06;68.94;100778.69;5068348;28;20230;-68
2022/01/23 01:05:48;;;;;;;26.70;18.87;;;;;;;3.42;69.87;100804.00;5062434;28;20964;-68
2022/01/23 01:08:15;;;;;;;30.63;20.33;;;;;;;4.67;65.61;100737.44;5069353;28;20984;-68
2022/01/23 01:10:54;;;;;;;27.20;18.33;;;;;;;2.07;74.07;100850.03;5066078;28;20591;-68
2022/01/23 01:13:22;;;;;;;28.40;19.33;;;;;;;1.79;76.18;100866.56;5069193;28;20609;-68
2022/01/23 01:16:00;;;;;;;27.57;19.33;;;;;;;1.33;77.00;100848.06;5062120;28;20235;-68
2022/01/23 01:32:29;;;;;;;30.20;20.07;;;;;;;1.05;78.08;100854.00;5065982;28;20329;-68
2022/01/23 01:35:05;;;;;;;32.27;20.10;;;;;;;1.36;77.70;100866.31;5064758;28;20253;-67
2022/01/23 01:37:32;;;;;;;33.00;21.63;;;;;;;1.31;78.40;100870.97;5066325;28;20221;-67
2022/01/23 01:39:59;;;;;;;27.73;18.70;;;;;;;1.83;75.42;100830.41;5064253;28;20244;-67
2022/01/23 01:42:26;;;;;;;29.80;20.60;;;;;;;1.82;74.22;100815.53;5065083;28;20233;-67
2022/01/23 01:44:53;;;;;;;31.10;20.03;;;;;;;2.63;71.12;100763.28;5065589;28;20229;-67
2022/01/23 01:47:20;;;;;;;31.80;19.87;;;;;;;2.55;73.44;100822.66;5067908;28;20248;-67
2022/01/23 01:49:47;;;;;;;30.10;22.03;;;;;;;2.61;72.60;100812.59;5063421;28;20309;-67
2022/01/23 01:52:14;;;;;;;32.00;21.43;;;;;;;1.87;75.82;100856.47;5064215;28;20227;-68
2022/01/23 01:54:41;;;;;;;31.57;19.73;;;;;;;1.59;75.42;100832.66;5067856;28;20232;-67
2022/01/23 01:57:10;;;;;;;31.80;20.03;;;;;;;1.31;76.56;100839.44;5067128;28;20671;-67
2022/01/23 02:00:10;;;;;;;32.83;20.23;;;;;;;1.64;77.17;100865.66;5066442;28;20233;-67
2022/01/23 02:10:51;;;;;;;27.63;20.33;;;;;;;1.93;75.55;100853.44;5061712;28;20231;-67
2022/01/23 02:13:24;;;;;;;31.10;20.50;;;;;;;1.98;75.64;100855.00;5065127;28;20230;-68
2022/01/23 02:56:47;;;;;;;32.40;21.43;;;;;;;2.46;74.34;100800.34;5061902;28;20227;-67
2022/01/23 02:59:26;;;;;;;31.33;20.73;;;;;;;1.99;74.93;100814.56;5066840;28;20231;-68
2022/01/23 03:04:27;;;;;;;34.03;20.67;;;;;;;2.02;75.22;100807.34;5064593;28;20252;-68
2022/01/23 03:07:11;;;;;;;29.83;20.23;;;;;;;4.23;69.20;100708.88;5065355;28;20226;-68
2022/01/23 03:10:01;;;;;;;33.90;21.47;;;;;;;2.32;73.38;100795.91;5066407;28;20232;-67
2022/01/23 03:15:23;;;;;;;30.60;20.63;;;;;;;2.25;73.98;100797.22;5052754;28;20252;-67
2022/01/23 03:31:52;;;;;;;33.13;21.77;;;;;;;5.02;64.60;100680.34;5053631;28;20231;-68
2022/01/23 03:34:23;;;;;;;31.40;20.97;;;;;;;5.21;63.96;100685.97;5055963;28;20262;-68
2022/01/23 03:36:51;;;;;;;30.73;21.30;;;;;;;4.48;66.91;100731.75;5061110;28;20223;-68
2022/01/23 03:39:18;;;;;;;34.37;21.63;;;;;;;3.94;65.10;100696.72;5067706;28;20227;-68
2022/01/23 03:41:45;;;;;;;31.77;21.27;;;;;;;2.78;71.29;100813.31;5066835;28;20227;-67
2022/01/23 03:44:16;;;;;;;34.57;21.23;;;;;;;3.96;66.59;100738.84;5065153;28;20227;-68
2022/01/23 03:49:36;;;;;;;29.43;20.77;;;;;;;3.59;68.42;100783.56;5052323;28;20241;-67
2022/01/23 03:52:11;;;;;;;31.13;21.83;;;;;;;2.72;71.15;100824.25;5065769;28;20227;-68
2022/01/23 03:54:39;;;;;;;40.37;22.80;;;;;;;5.10;64.09;100729.06;5068174;28;20227;-67
2022/01/23 03:57:07;;;;;;;31.27;21.20;;;;;;;3.97;66.18;100745.84;5066546;28;20751;-68
2022/01/23 03:59:35;;;;;;;31.17;21.20;;;;;;;4.70;64.68;100726.66;5067090;28;20219;-68
2022/01/23 04:02:04;;;;;;;31.80;20.53;;;;;;;5.11;63.97;100729.94;5069211;28;20236;-68
2022/01/23 04:04:42;;;;;;;30.33;21.90;;;;;;;5.01;64.43;100740.34;5068863;28;20221;-68
2022/01/23 04:07:26;;;;;;;30.87;20.90;;;;;;;5.39;62.85;100741.94;5069620;28;20718;-68
2022/01/23 04:09:53;;;;;;;31.00;20.83;;;;;;;5.09;63.78;100739.75;5065899;28;20238;-67
2022/01/23 04:12:49;;;;;;;32.13;21.80;;;;;;;4.17;67.64;100799.94;5062960;28;20253;-67
2022/01/23 05:01:54;;;;;;;33.23;21.73;;;;;;;4.14;67.48;100789.56;5068351;28;20232;-68
2022/01/23 05:04:30;;;;;;;34.27;21.73;;;;;;;2.43;71.60;100840.03;5064074;28;20886;-67
2022/01/23 05:07:00;;;;;;;30.87;20.57;;;;;;;3.38;70.79;100844.69;5061748;28;20223;-67
2022/01/23 05:09:29;;;;;;;36.57;21.27;;;;;;;3.00;70.30;100829.50;5068108;28;20240;-67
2022/01/23 05:12:07;;;;;;;28.83;21.33;;;;;;;4.07;67.50;100773.31;5050459;28;20235;-68
2022/01/23 05:14:41;;;;;;;33.93;20.83;;;;;;;2.76;69.00;100775.69;5067664;28;20227;-67
2022/01/23 05:17:11;;;;;;;35.80;22.07;;;;;;;3.15;70.53;100832.09;5063206;28;20652;-67
2022/01/23 05:19:39;;;;;;;28.50;19.53;;;;;;;2.39;72.51;100844.63;5069637;28;20226;-67
2022/01/23 05:24:39;;;;;;;30.90;22.07;;;;;;;5.03;64.28;100746.34;5066845;28;20230;-68
2022/01/23 05:27:09;;;;;;;33.40;21.13;;;;;;;3.35;68.11;100802.69;5055944;28;20235;-67
2022/01/23 05:29:37;;;;;;;30.90;20.53;;;;;;;4.06;66.49;100776.88;5068501;28;21007;-68
2022/01/23 05:32:06;;;;;;;26.30;19.27;;;;;;;4.10;67.71;100809.22;5063607;28;20230;-68
2022/01/23 05:34:33;;;;;;;29.20;20.60;;;;;;;2.78;69.99;100839.66;5066563;28;20234;-67
2022/01/23 05:37:00;;;;;;;30.40;20.47;;;;;;;2.38;73.18;100895.63;5059480;28;20231;-68
2022/01/23 05:39:31;;;;;;;31.73;21.10;;;;;;;3.07;71.26;100872.13;5069767;28;20264;-67
2022/01/23 05:42:06;;;;;;;30.83;21.17;;;;;;;4.60;65.96;100793.47;5065325;28;20239;-68
2022/01/23 05:44:35;;;;;;;30.07;21.63;;;;;;;4.40;66.49;100790.44;5067864;28;20697;-67
2022/01/23 05:47:03;;;;;;;28.63;20.17;;;;;;;3.72;68.49;100828.47;5062354;28;20224;-68
2022/01/23 05:49:31;;;;;;;30.33;20.30;;;;;;;2.99;69.25;100827.78;5063550;28;20356;-68
2022/01/23 05:51:58;;;;;;;30.93;20.27;;;;;;;4.79;64.56;100769.22;5065082;28;20772;-68
2022/01/23 05:54:26;;;;;;;33.60;21.63;;;;;;;5.13;63.41;100759.75;5068411;28;20227;-68
2022/01/23 05:56:53;;;;;;;29.20;20.50;;;;;;;5.37;62.85;100759.75;5064328;28;20232;-68
2022/01/23 05:59:22;;;;;;;29.30;20.90;;;;;;;5.52;61.97;100741.88;5063810;28;20257;-68
2022/01/23 06:01:54;;;;;;;35.30;22.37;;;;;;;5.38;62.40;100757.94;5065267;28;20223;-68
2022/01/23 06:04:24;;;;;;;30.80;21.70;;;;;;;4.72;63.94;100760.88;5069661;28;20888;-68
2022/01/23 06:06:53;;;;;;;33.13;22.13;;;;;;;4.88;64.73;100795.84;5061329;28;20828;-67
2022/01/23 06:09:21;;;;;;;31.10;22.20;;;;;;;5.37;62.32;100777.44;5063218;28;20628;-68
2022/01/23 06:11:49;;;;;;;33.30;22.70;;;;;;;4.36;66.27;100825.94;5063971;28;20895;-68
2022/01/23 06:14:17;;;;;;;31.37;22.00;;;;;;;5.59;62.27;100780.16;5068825;28;20260;-68
2022/01/23 06:16:44;;;;;;;33.00;21.27;;;;;;;5.41;62.18;100776.22;5057199;28;20219;-67
2022/01/23 06:19:11;;;;;;;31.33;20.63;;;;;;;5.59;61.79;100780.16;5066077;28;20722;-68
2022/01/23 06:21:38;;;;;;;31.33;21.57;;;;;;;5.42;62.03;100778.78;5061813;28;20240;-68
2022/01/23 06:24:08;;;;;;;32.63;22.33;;;;;;;4.64;63.59;100776.47;5067595;28;20227;-68
2022/01/23 06:26:41;;;;;;;31.70;22.37;;;;;;;4.70;64.17;100805.94;5065303;28;20607;-68
2022/01/23 06:29:08;;;;;;;30.50;21.13;;;;;;;5.44;62.36;100807.75;5060723;28;21614;-68
2022/01/23 06:31:35;;;;;;;31.67;21.10;;;;;;;4.73;64.25;100807.53;5064343;28;20233;-68
2022/01/23 06:34:02;;;;;;;32.97;22.07;;;;;;;5.47;62.39;100820.78;5061807;28;20281;-67
2022/01/23 06:36:29;;;;;;;30.60;21.73;;;;;;;5.17;63.36;100816.75;5063317;28;20226;-67
2022/01/23 06:38:56;;;;;;;31.47;20.97;;;;;;;5.44;62.26;100813.06;5063485;28;20800;-67
2022/01/23 06:41:23;;;;;;;34.33;22.90;;;;;;;5.42;61.88;100797.28;5070219;28;20233;-68
2022/01/23 06:43:50;;;;;;;31.87;21.57;;;;;;;5.07;62.72;100795.44;5062958;28;20615;-67
2022/01/23 06:46:18;;;;;;;30.83;22.57;;;;;;;5.20;62.85;100800.66;5067849;28;20652;-68
2022/01/23 06:48:45;;;;;;;34.80;21.37;;;;;;;5.19;63.12;100814.00;5065070;28;20233;-67
2022/01/23 06:51:12;;;;;;;42.17;27.40;;;;;;;5.31;62.45;100813.13;5064796;28;20234;-68
2022/01/23 06:53:38;;;;;;;36.57;24.73;;;;;;;4.82;64.10;100828.03;5065714;28;20229;-68
2022/01/23 06:56:05;;;;;;;36.63;25.67;;;;;;;5.22;63.03;100824.38;5068805;28;20231;-67
2022/01/23 06:58:33;;;;;;;37.33;24.40;;;;;;;5.14;63.36;100821.41;5061842;28;20225;-68
2022/01/23 07:01:00;;;;;;;40.87;25.20;;;;;;;4.93;63.46;100826.47;5067061;28;20266;-68
2022/01/23 07:03:27;;;;;;;35.03;23.90;;;;;;;5.52;62.04;100821.28;5065684;28;20229;-67
2022/01/23 07:05:54;;;;;;;37.63;24.33;;;;;;;5.61;61.44;100823.28;5065021;28;20242;-68
2022/01/23 07:08:21;;;;;;;34.37;23.17;;;;;;;4.89;63.19;100818.72;5062074;28;20227;-68
2022/01/23 07:10:48;;;;;;;31.57;22.97;;;;;;;4.88;63.78;100846.09;5064044;28;20226;-67
2022/01/23 07:13:15;;;;;;;63.53;42.43;;;;;;;5.39;62.79;100846.94;5066785;28;20233;-68
2022/01/23 07:15:42;;;;;;;58.30;41.17;;;;;;;5.02;63.41;100842.50;5060964;28;20223;-68
2022/01/23 07:18:09;;;;;;;59.00;44.23;;;;;;;4.62;63.59;100834.72;5063335;28;20222;-68
2022/01/23 07:20:36;;;;;;;48.97;34.87;;;;;;;4.84;64.13;100860.50;5068637;28;20225;-68
2022/01/23 07:23:03;;;;;;;46.87;36.10;;;;;;;5.22;62.86;100859.59;5068225;28;20227;-68
2022/01/23 07:25:30;;;;;;;41.60;30.63;;;;;;;5.22;62.43;100835.78;5064844;28;20232;-67
2022/01/23 07:27:59;;;;;;;46.50;31.53;;;;;;;5.13;62.84;100835.63;5070615;28;20619;-67
2022/01/23 07:30:39;;;;;;;39.57;29.03;;;;;;;5.10;63.10;100849.91;5063152;28;21127;-68
2022/01/23 07:33:06;;;;;;;37.33;25.13;;;;;;;4.88;64.49;100880.47;5068872;28;20865;-68
2022/01/23 07:35:33;;;;;;;39.23;26.03;;;;;;;5.17;62.23;100826.50;5069163;28;20233;-68
2022/01/23 07:38:00;;;;;;;34.87;24.57;;;;;;;4.99;63.81;100853.31;5063437;28;20228;-68
2022/01/23 07:40:27;;;;;;;34.73;24.87;;;;;;;5.12;63.43;100863.84;5064174;28;20226;-68
2022/01/23 07:42:54;;;;;;;36.80;26.23;;;;;;;5.38;62.53;100855.84;5068079;28;20223;-68
2022/01/23 07:45:21;;;;;;;40.03;26.73;;;;;;;4.96;63.70;100848.22;5072265;28;20225;-67
2022/01/23 07:47:48;;;;;;;35.20;25.37;;;;;;;5.19;63.03;100849.25;5064562;28;20219;-67
2022/01/23 07:50:16;;;;;;;38.80;25.97;;;;;;;5.78;61.45;100858.22;5069809;28;20224;-68
2022/01/23 07:52:43;;;;;;;36.37;25.57;;;;;;;5.35;62.82;100869.31;5067314;28;20283;-68
2022/01/23 07:55:13;;;;;;;43.37;28.37;;;;;;;5.63;61.51;100866.34;5065648;28;21021;-68
2022/01/23 07:57:44;;;;;;;42.97;29.30;;;;;;;4.41;64.14;100859.97;5067140;28;20222;-68
2022/01/23 08:00:13;;;;;;;40.77;27.13;;;;;;;5.53;62.18;100881.22;5070801;28;20241;-68
2022/01/23 08:02:40;;;;;;;36.63;23.80;;;;;;;5.36;62.68;100882.44;5065915;28;20229;-68
2022/01/23 08:05:09;;;;;;;38.17;24.53;;;;;;;5.41;62.38;100875.00;5066895;28;20404;-67
2022/01/23 08:07:37;;;;;;;33.77;22.90;;;;;;;5.09;62.81;100872.00;5069027;28;20219;-68
2022/01/23 08:10:08;;;;;;;38.00;23.43;;;;;;;5.00;63.92;100901.75;5067811;28;20227;-68
2022/01/23 08:12:35;;;;;;;34.43;23.30;;;;;;;5.83;61.23;100899.31;5067413;28;20222;-68
2022/01/23 08:15:04;;;;;;;37.07;23.33;;;;;;;5.88;60.78;100869.81;5062699;28;20249;-67
2022/01/23 08:17:31;;;;;;;32.83;21.70;;;;;;;5.61;61.76;100873.56;5069578;28;20229;-67
2022/01/23 08:20:00;;;;;;;31.80;23.97;;;;;;;5.69;61.27;100882.75;5065836;28;20220;-67
2022/01/23 08:22:29;;;;;;;36.87;24.80;;;;;;;5.18;62.34;100874.00;5061541;28;20236;-68
2022/01/23 08:24:57;;;;;;;38.43;24.67;;;;;;;5.39;62.59;100899.88;5059273;28;20769;-71
2022/01/23 08:27:25;;;;;;;41.53;27.10;;;;;;;5.55;61.92;100891.69;5062938;28;20228;-74
2022/01/23 08:29:58;;;;;;;42.53;29.07;;;;;;;5.14;62.60;100877.81;5059395;28;20220;-68
2022/01/23 08:32:25;;;;;;;57.33;40.13;;;;;;;5.24;63.26;100912.38;5060599;28;20237;-69
2022/01/23 08:34:52;;;;;;;65.57;46.83;;;;;;;5.34;62.27;100891.41;5061622;28;20219;-69
2022/01/23 08:37:20;;;;;;;54.83;41.60;;;;;;;5.46;62.28;100895.81;5061725;28;20231;-69
2022/01/23 08:39:47;;;;;;;49.40;36.33;;;;;;;6.12;60.62;100898.06;5067913;28;20224;-69
2022/01/23 08:42:16;;;;;;;49.77;35.70;;;;;;;4.96;63.25;100877.31;5065791;28;20231;-71
2022/01/23 08:44:47;;;;;;;48.90;34.40;;;;;;;5.05;63.94;100896.97;5056619;28;20595;-69
2022/01/23 08:47:15;;;;;;;44.37;31.97;;;;;;;5.41;62.54;100890.88;5069531;28;20231;-68
2022/01/23 08:49:45;;;;;;;42.87;27.53;;;;;;;5.16;62.25;100870.63;5056405;28;20232;-68
2022/01/23 08:52:16;;;;;;;41.23;27.13;;;;;;;5.41;62.49;100898.81;5054908;28;20228;-69
2022/01/23 08:55:04;;;;;;;40.70;26.73;;;;;;;6.17;60.45;100895.94;5058840;28;20227;-68
2022/01/23 08:57:31;;;;;;;42.00;27.10;;;;;;;6.37;59.69;100871.47;5057105;28;20707;-67
2022/01/23 09:00:19;;;;;;;41.00;27.87;;;;;;;6.54;59.11;100862.22;5068683;28;20226;-68
2022/01/23 09:02:45;;;;;;;45.80;30.30;;;;;;;6.06;60.18;100854.34;5064993;28;21112;-68
2022/01/23 09:05:12;;;;;;;45.90;28.77;;;;;;;3.77;67.06;100910.81;5057957;28;20237;-68
2022/01/23 09:07:39;;;;;;;39.57;26.70;;;;;;;5.59;62.51;100899.28;5062469;28;20222;-68
2022/01/23 09:10:06;;;;;;;37.13;25.13;;;;;;;6.05;60.94;100891.56;5068249;28;20230;-68
2022/01/23 09:15:06;;;;;;;34.57;24.87;;;;;;;5.86;61.33;100878.84;5062947;28;20227;-68
2022/01/23 09:17:33;;;;;;;36.50;24.40;;;;;;;5.71;61.69;100878.16;5065406;28;20222;-68
2022/01/23 09:20:00;;;;;;;39.47;27.47;;;;;;;6.25;60.54;100869.69;5060067;28;20236;-68
2022/01/23 09:22:29;;;;;;;43.97;28.70;;;;;;;6.62;59.46;100874.88;5063861;28;20227;-68
2022/01/23 09:25:00;;;;;;;39.17;26.33;;;;;;;6.48;59.71;100862.69;5059525;28;20226;-68
2022/01/23 09:27:28;;;;;;;38.87;25.93;;;;;;;5.91;61.37;100866.94;5067554;28;20230;-68
2022/01/23 09:29:56;;;;;;;37.93;24.90;;;;;;;5.74;62.54;100880.59;5064285;28;20234;-68
2022/01/23 09:32:25;;;;;;;38.40;25.47;;;;;;;6.30;60.40;100870.19;5064350;28;20733;-68
2022/01/23 09:34:52;;;;;;;37.13;24.77;;;;;;;6.50;60.24;100873.16;5059259;28;20231;-68
2022/01/23 09:37:19;;;;;;;36.83;24.43;;;;;;;6.97;59.04;100873.09;5060830;28;20233;-68
2022/01/23 09:39:50;;;;;;;37.23;24.47;;;;;;;6.79;58.86;100852.34;5063707;28;20245;-68
2022/01/23 09:42:23;;;;;;;36.90;24.57;;;;;;;6.64;59.49;100850.88;5060884;28;20230;-68
2022/01/23 09:45:00;;;;;;;37.73;24.73;;;;;;;6.17;61.01;100861.47;5059079;28;20230;-68
2022/01/23 09:47:28;;;;;;;40.37;24.73;;;;;;;6.76;59.29;100857.88;5066362;28;20226;-68
2022/01/23 09:49:57;;;;;;;38.27;24.90;;;;;;;6.84;58.96;100859.94;5061790;28;20223;-68
2022/01/23 09:52:29;;;;;;;38.33;25.03;;;;;;;6.94;58.77;100856.44;5061629;28;20226;-68
2022/01/23 09:55:00;;;;;;;36.63;25.00;;;;;;;6.93;58.72;100854.75;5065760;28;20233;-68
2022/01/23 09:57:31;;;;;;;37.03;25.27;;;;;;;6.85;59.00;100851.03;5065489;28;20230;-68
2022/01/23 10:00:00;;;;;;;36.77;26.13;;;;;;;6.55;60.02;100841.84;5060634;28;20227;-68
2022/01/23 10:02:30;;;;;;;42.40;26.87;;;;;;;6.39;60.38;100843.03;5067862;28;20227;-68
2022/01/23 10:05:02;;;;;;;47.53;30.57;;;;;;;6.68;60.09;100850.53;5060590;28;20237;-68
2022/01/23 10:07:30;;;;;;;46.90;30.93;;;;;;;6.93;59.30;100849.47;5059665;28;20240;-68
2022/01/23 10:10:09;;;;;;;53.97;30.57;;;;;;;6.66;59.80;100836.56;5055436;28;20223;-68
2022/01/23 10:12:41;;;;;;;41.77;28.07;;;;;;;7.03;59.15;100854.00;5067232;28;20233;-68
2022/01/23 10:15:09;;;;;;;42.57;29.43;;;;;;;7.01;58.83;100846.19;5057098;28;20591;-68
2022/01/23 10:17:37;;;;;;;47.73;30.20;;;;;;;6.94;58.95;100829.91;5058821;28;20219;-68
2022/01/23 10:20:07;;;;;;;46.97;29.63;;;;;;;6.35;60.50;100835.44;5062882;28;20227;-68
2022/01/23 10:22:36;;;;;;;46.60;29.60;;;;;;;6.83;59.57;100842.31;5058504;28;20660;-68
2022/01/23 10:25:13;;;;;;;46.73;29.57;;;;;;;6.26;60.94;100844.91;5053589;28;20231;-68
2022/01/23 10:28:06;;;;;;;46.57;29.10;;;;;;;6.60;60.51;100850.28;5055181;28;20218;-68
2022/01/23 10:30:39;;;;;;;38.83;25.60;;;;;;;6.44;60.43;100844.47;5066236;28;20226;-68
2022/01/23 10:33:11;;;;;;;42.30;27.40;;;;;;;6.81;60.19;100836.31;5051219;28;20776;-68
2022/01/23 10:36:17;;;;;;;41.33;26.37;;;;;;;6.65;60.45;100837.50;5062990;28;20226;-68
2022/01/23 10:38:54;;;;;;;41.83;25.17;;;;;;;6.42;61.13;100841.94;5061658;28;20234;-68
2022/01/23 10:49:58;;;;;;;39.20;23.57;;;;;;;6.45;61.49;100820.50;5062295;28;20226;-68
2022/01/23 10:52:29;;;;;;;36.87;24.03;;;;;;;6.32;62.04;100840.97;5062741;28;20235;-68
2022/01/23 10:54:56;;;;;;;36.80;22.60;;;;;;;6.83;60.57;100832.59;5055406;28;20227;-68
2022/01/23 10:57:24;;;;;;;35.40;23.57;;;;;;;7.12;60.08;100829.41;5062086;28;20219;-68
2022/01/23 10:59:53;;;;;;;36.97;23.60;;;;;;;6.75;61.21;100824.38;5056331;28;20231;-68
2022/01/23 11:04:10;;;;;;;41.53;24.87;;;;;;;5.20;65.93;100865.97;5028077;27;20581;-67
2022/01/23 11:07:00;;;;;;;39.30;24.73;;;;;;;5.41;64.66;100837.09;5016045;28;20224;-67
2022/01/23 11:09:36;;;;;;;35.73;23.30;;;;;;;5.42;64.84;100836.97;5019112;28;21787;-67
2022/01/23 11:12:14;;;;;;;33.60;22.60;;;;;;;5.75;64.20;100842.56;5020412;28;20213;-67
2022/01/23 11:17:27;;;;;;;32.57;21.60;;;;;;;6.01;63.59;100828.22;5021806;28;20228;-67
2022/01/23 11:19:57;;;;;;;32.70;21.90;;;;;;;6.05;63.61;100815.56;5024596;28;20258;-67
2022/01/23 11:22:35;;;;;;;29.37;19.47;;;;;;;6.07;63.98;100818.97;5019861;28;20231;-67
2022/01/23 11:25:07;;;;;;;29.37;20.33;;;;;;;5.77;63.60;100777.13;5014388;28;20230;-67
2022/01/23 11:27:37;;;;;;;27.23;18.00;;;;;;;6.02;64.04;100800.78;5015135;28;20229;-67
2022/01/23 11:30:05;;;;;;;26.17;18.73;;;;;;;6.39;62.66;100783.91;5020811;28;20255;-67
2022/01/23 11:32:37;;;;;;;29.90;19.83;;;;;;;6.77;61.81;100796.75;5019066;28;20223;-67
2022/01/23 11:35:12;;;;;;;30.97;20.07;;;;;;;5.79;64.85;100793.72;5018723;28;20229;-67
2022/01/23 11:37:48;;;;;;;27.40;18.50;;;;;;;6.16;62.90;100773.22;5014254;28;20644;-67
2022/01/23 11:53:59;;;;;;;32.73;20.97;;;;;;;5.91;64.21;100805.19;5021462;28;20233;-67
2022/01/23 11:56:31;;;;;;;29.50;20.50;;;;;;;5.21;66.06;100826.19;5022910;28;20688;-67
2022/01/23 11:59:17;;;;;;;30.13;19.30;;;;;;;5.33;64.36;100784.75;5020180;28;20236;-67
2022/01/23 12:01:48;;;;;;;28.30;19.03;;;;;;;5.51;65.14;100810.81;5018604;28;20227;-67
2022/01/23 12:04:21;;;;;;;31.37;19.47;;;;;;;5.58;65.65;100804.97;5019098;28;20235;-67
2022/01/23 12:07:20;;;;;;;28.63;19.13;;;;;;;5.76;65.33;100809.84;5020003;28;20221;-67
2022/01/23 12:10:14;;;;;;;27.07;18.53;;;;;;;5.08;66.71;100804.19;5015521;28;20743;-67
2022/01/23 12:12:45;;;;;;;30.40;19.50;;;;;;;6.48;62.60;100742.56;5019974;28;20230;-66
2022/01/23 12:18:21;;;;;;;29.50;19.70;;;;;;;6.09;63.52;100744.69;5001242;28;20615;-67
2022/01/23 12:20:50;;;;;;;29.77;19.47;;;;;;;5.49;65.69;100789.75;5005442;28;20735;-67
2022/01/23 12:23:18;;;;;;;32.50;21.37;;;;;;;6.39;62.87;100744.97;5000863;28;20263;-67
2022/01/23 12:25:51;;;;;;;30.27;19.70;;;;;;;5.82;64.87;100759.06;5004159;28;20713;-67
2022/01/23 12:28:20;;;;;;;32.00;21.10;;;;;;;6.80;61.16;100721.44;5006554;28;20784;-67
2022/01/23 12:30:50;;;;;;;28.57;19.13;;;;;;;6.40;61.53;100709.53;5001483;28;20235;-67
2022/01/23 12:33:35;;;;;;;30.57;20.23;;;;;;;6.03;63.34;100749.47;5007370;28;20225;-67
2022/01/23 12:36:25;;;;;;;30.83;20.40;;;;;;;5.83;64.46;100766.03;4998628;28;20726;-67
2022/01/23 12:38:56;;;;;;;31.63;21.10;;;;;;;5.63;64.71;100763.09;5007752;28;20233;-66
2022/01/23 12:41:26;;;;;;;30.33;21.07;;;;;;;4.38;66.60;100747.41;5008562;28;20724;-66
2022/01/23 12:44:09;;;;;;;32.87;19.77;;;;;;;5.50;65.63;100780.03;5004386;28;20232;-65
2022/01/23 12:46:42;;;;;;;31.20;20.13;;;;;;;6.43;62.59;100727.03;5003187;28;20224;-66
2022/01/23 12:49:21;;;;;;;37.37;22.37;;;;;;;5.75;64.19;100752.53;5004644;28;20233;-67
2022/01/23 12:51:55;;;;;;;33.90;20.43;;;;;;;4.20;67.71;100754.84;5008435;28;20228;-67
2022/01/23 12:54:25;;;;;;;29.60;20.80;;;;;;;5.82;64.54;100743.19;5004786;28;20235;-66
2022/01/23 12:56:53;;;;;;;29.97;21.63;;;;;;;6.35;62.08;100711.72;5003570;28;20225;-67
2022/01/23 12:59:33;;;;;;;31.20;21.33;;;;;;;6.08;62.87;100719.16;5006854;28;20236;-67
2022/01/23 13:02:07;;;;;;;29.90;21.00;;;;;;;6.59;61.85;100702.78;5006317;28;20236;-66
2022/01/23 13:04:38;;;;;;;30.60;20.23;;;;;;;6.57;61.88;100697.59;4999005;28;20229;-66
2022/01/23 13:07:13;;;;;;;34.57;22.63;;;;;;;6.03;64.18;100722.97;5004173;28;20418;-67
2022/01/23 13:09:50;;;;;;;28.70;18.57;;;;;;;5.91;64.25;100736.34;4992150;28;20239;-67
2022/01/23 13:17:49;;;;;;;33.70;21.07;;;;;;;5.68;65.47;100746.03;4994299;28;20230;-68
2022/01/23 13:31:44;;;;;;;26.60;18.93;;;;;;;5.35;65.70;100729.06;5008183;28;20235;-67
2022/01/23 13:34:21;;;;;;;26.73;18.80;;;;;;;5.73;65.67;100730.63;5005712;28;20229;-65
2022/01/23 13:37:03;;;;;;;28.17;19.80;;;;;;;3.90;68.80;100715.53;5006719;28;20227;-66
2022/01/23 13:39:56;;;;;;;27.83;19.23;;;;;;;6.00;65.08;100704.69;5006770;28;20233;-66
2022/01/23 13:53:30;;;;;;;30.63;20.40;;;;;;;5.35;65.14;100700.81;5002193;28;20818;-67
2022/01/23 13:58:52;;;;;;;28.43;20.00;;;;;;;6.32;62.52;100661.63;5005687;28;20745;-66
2022/01/23 14:03:53;;;;;;;28.20;18.47;;;;;;;5.97;63.55;100696.16;4994048;28;20244;-69
2022/01/23 14:06:20;;;;;;;26.60;18.57;;;;;;;6.25;62.42;100667.50;4997559;28;20235;-69
2022/01/23 14:09:08;;;;;;;29.63;19.57;;;;;;;6.54;62.41;100686.41;4991886;28;20241;-69
2022/01/23 14:11:35;;;;;;;30.07;19.77;;;;;;;6.51;61.53;100668.94;4997011;28;20229;-68
2022/01/23 14:14:15;;;;;;;24.27;17.37;;;;;;;6.43;61.22;100650.16;4993401;28;20233;-68
2022/01/23 14:16:44;;;;;;;25.63;17.03;;;;;;;6.12;61.57;100660.53;4993424;28;20588;-69
2022/01/23 14:19:17;;;;;;;26.67;18.40;;;;;;;6.42;62.43;100676.78;5000554;28;20233;-66
2022/01/23 14:21:48;;;;;;;28.13;19.23;;;;;;;6.40;62.34;100663.66;4995709;28;20228;-66
2022/01/23 14:24:33;;;;;;;23.20;17.33;;;;;;;6.45;62.59;100685.31;4997920;28;20226;-68
2022/01/23 14:27:09;;;;;;;28.23;18.77;;;;;;;6.51;62.66;100682.19;5000386;28;20722;-69
2022/01/23 14:29:54;;;;;;;27.77;16.60;;;;;;;7.09;60.99;100671.31;5000658;28;20250;-70
2022/01/23 14:32:36;;;;;;;28.77;17.27;;;;;;;6.62;61.88;100657.47;5002588;28;20233;-67
2022/01/23 14:35:05;;;;;;;24.20;16.47;;;;;;;5.93;64.40;100710.56;5002048;28;20296;-67
2022/01/23 14:37:32;;;;;;;24.07;16.57;;;;;;;6.48;62.22;100681.59;5007723;28;20596;-68
2022/01/23 14:40:11;;;;;;;26.57;15.73;;;;;;;6.24;61.16;100663.16;5002141;28;20238;-67
2022/01/23 14:42:39;;;;;;;20.37;14.63;;;;;;;6.15;60.63;100665.59;5003027;28;20221;-67
2022/01/23 14:45:09;;;;;;;21.03;13.80;;;;;;;6.67;60.27;100651.81;4998000;28;20619;-70
2022/01/23 14:47:38;;;;;;;19.57;14.10;;;;;;;7.27;57.96;100666.28;5002948;28;20302;-69
2022/01/23 14:50:11;;;;;;;22.13;14.00;;;;;;;7.27;58.36;100665.47;4999225;28;20244;-67
2022/01/23 14:52:41;;;;;;;17.80;13.37;;;;;;;6.98;59.40;100663.41;5005447;28;20226;-68
2022/01/23 14:55:08;;;;;;;18.47;13.00;;;;;;;7.21;58.37;100671.25;5000443;28;20230;-68
2022/01/23 14:57:35;;;;;;;18.57;12.87;;;;;;;7.12;58.55;100665.75;5004867;28;20686;-68
2022/01/23 15:00:08;;;;;;;19.30;12.70;;;;;;;6.65;59.53;100657.22;5004510;28;20233;-69
2022/01/23 15:02:36;;;;;;;20.33;12.77;;;;;;;6.71;59.94;100679.72;5004288;28;20270;-70